sensor_id;sensor_type;location;lat;lon;timestamp;pressure;altitude;pressure_sealevel;temperature;humidity
2681;BME280;1350;42.134;24.708;2022-12-18T00:02:02;99995.34;;;12.78;100.00
2681;BME280;1350;42.134;24.708;2022-12-18T00:04:30;99997.56;;;13.03;100.00
2681;BME280;1350;42.134;24.708;2022-12-18T00:06:57;100011.19;;;12.97;100.00
2681;BME280;1350;42.134;24.708;2022-12-18T00:09:24;100016.09;;;12.72;100.00
2681;BME280;1350;42.134;24.708;2022-12-18T00:11:51;100022.00;;;12.61;100.00
2681;BME280;1350;42.134;24.708;2022-12-18T00:14:18;100027.22;;;12.80;100.00
2681;BME280;1350;42.134;24.708;2022-12-18T00:16:45;100036.44;;;12.90;100.00
2681;BME280;1350;42.134;24.708;2022-12-18T00:19:12;100045.97;;;12.61;100.00
2681;BME280;1350;42.134;24.708;2022-12-18T00:21:43;100045.28;;;12.73;100.00
2681;BME280;1350;42.134;24.708;2022-12-18T00:24:11;100053.19;;;12.75;100.00
2681;BME280;1350;42.134;24.708;2022-12-18T00:26:38;100056.16;;;12.86;100.00
2681;BME280;1350;42.134;24.708;2022-12-18T00:29:07;100049.94;;;13.02;100.00
2681;BME280;1350;42.134;24.708;2022-12-18T00:31:34;100052.91;;;12.96;100.00
2681;BME280;1350;42.134;24.708;2022-12-18T00:34:01;100054.03;;;12.92;100.00
2681;BME280;1350;42.134;24.708;2022-12-18T00:36:31;100056.81;;;13.06;100.00
2681;BME280;1350;42.134;24.708;2022-12-18T00:39:01;100055.47;;;12.98;100.00
2681;BME280;1350;42.134;24.708;2022-12-18T00:41:28;100069.66;;;12.66;100.00
2681;BME280;1350;42.134;24.708;2022-12-18T00:44:14;100070.56;;;12.82;100.00
2681;BME280;1350;42.134;24.708;2022-12-18T00:46:42;100069.69;;;12.81;100.00
2681;BME280;1350;42.134;24.708;2022-12-18T00:49:12;100077.31;;;12.72;100.00
2681;BME280;1350;42.134;24.708;2022-12-18T00:51:40;100089.38;;;12.79;100.00
2681;BME280;1350;42.134;24.708;2022-12-18T00:54:08;100092.69;;;12.67;100.00
2681;BME280;1350;42.134;24.708;2022-12-18T00:56:35;100088.63;;;12.43;100.00
2681;BME280;1350;42.134;24.708;2022-12-18T00:59:02;100079.47;;;12.31;100.00
2681;BME280;1350;42.134;24.708;2022-12-18T01:01:29;100084.09;;;12.11;100.00
2681;BME280;1350;42.134;24.708;2022-12-18T01:03:56;100083.94;;;12.14;100.00
2681;BME280;1350;42.134;24.708;2022-12-18T01:06:22;100081.91;;;12.19;100.00
2681;BME280;1350;42.134;24.708;2022-12-18T01:08:49;100079.09;;;12.39;100.00
2681;BME280;1350;42.134;24.708;2022-12-18T01:11:19;100084.06;;;12.62;100.00
2681;BME280;1350;42.134;24.708;2022-12-18T01:13:46;100082.88;;;12.50;100.00
2681;BME280;1350;42.134;24.708;2022-12-18T01:16:14;100081.25;;;12.65;100.00
2681;BME280;1350;42.134;24.708;2022-12-18T01:18:41;100080.63;;;12.43;100.00
2681;BME280;1350;42.134;24.708;2022-12-18T01:21:09;100091.25;;;12.60;100.00
2681;BME280;1350;42.134;24.708;2022-12-18T01:23:36;100081.97;;;12.34;100.00
2681;BME280;1350;42.134;24.708;2022-12-18T01:26:07;100085.13;;;12.75;100.00
2681;BME280;1350;42.134;24.708;2022-12-18T01:28:36;100083.13;;;12.63;100.00
2681;BME280;1350;42.134;24.708;2022-12-18T01:31:13;100086.16;;;12.72;100.00
2681;BME280;1350;42.134;24.708;2022-12-18T01:33:40;100081.66;;;12.57;100.00
2681;BME280;1350;42.134;24.708;2022-12-18T01:36:08;100071.50;;;12.48;100.00
2681;BME280;1350;42.134;24.708;2022-12-18T01:38:35;100077.91;;;12.44;100.00
2681;BME280;1350;42.134;24.708;2022-12-18T01:41:01;100078.84;;;12.43;100.00
2681;BME280;1350;42.134;24.708;2022-12-18T01:43:44;100071.78;;;12.92;100.00
2681;BME280;1350;42.134;24.708;2022-12-18T01:46:11;100085.50;;;12.84;100.00
2681;BME280;1350;42.134;24.708;2022-12-18T01:48:39;100091.38;;;12.91;100.00
2681;BME280;1350;42.134;24.708;2022-12-18T01:51:08;100093.88;;;12.94;100.00
2681;BME280;1350;42.134;24.708;2022-12-18T01:53:36;100087.38;;;12.82;100.00
2681;BME280;1350;42.134;24.708;2022-12-18T01:56:03;100097.59;;;12.74;100.00
2681;BME280;1350;42.134;24.708;2022-12-18T01:58:37;100086.94;;;13.07;100.00
2681;BME280;1350;42.134;24.708;2022-12-18T02:01:08;100093.56;;;12.83;100.00
2681;BME280;1350;42.134;24.708;2022-12-18T02:03:35;100089.56;;;12.59;100.00
2681;BME280;1350;42.134;24.708;2022-12-18T02:06:09;100103.66;;;12.76;100.00
2681;BME280;1350;42.134;24.708;2022-12-18T02:08:41;100099.22;;;12.77;100.00
2681;BME280;1350;42.134;24.708;2022-12-18T02:11:17;100095.53;;;12.79;100.00
2681;BME280;1350;42.134;24.708;2022-12-18T02:13:49;100097.03;;;12.68;100.00
2681;BME280;1350;42.134;24.708;2022-12-18T02:16:25;100104.00;;;12.70;100.00
2681;BME280;1350;42.134;24.708;2022-12-18T02:19:00;100109.47;;;12.67;100.00
2681;BME280;1350;42.134;24.708;2022-12-18T02:21:39;100116.59;;;12.84;100.00
2681;BME280;1350;42.134;24.708;2022-12-18T02:24:18;100109.88;;;12.77;100.00
2681;BME280;1350;42.134;24.708;2022-12-18T02:26:55;100110.56;;;12.80;100.00
2681;BME280;1350;42.134;24.708;2022-12-18T02:29:26;100111.28;;;12.84;100.00
2681;BME280;1350;42.134;24.708;2022-12-18T02:31:57;100119.78;;;12.90;100.00
2681;BME280;1350;42.134;24.708;2022-12-18T02:34:28;100122.28;;;12.93;100.00
2681;BME280;1350;42.134;24.708;2022-12-18T02:36:57;100110.41;;;13.00;100.00
2681;BME280;1350;42.134;24.708;2022-12-18T02:39:26;100102.34;;;13.02;100.00
2681;BME280;1350;42.134;24.708;2022-12-18T02:41:57;100098.81;;;13.01;100.00
2681;BME280;1350;42.134;24.708;2022-12-18T02:44:24;100102.88;;;12.91;100.00
2681;BME280;1350;42.134;24.708;2022-12-18T02:46:53;100099.03;;;12.97;100.00
2681;BME280;1350;42.134;24.708;2022-12-18T02:49:28;100093.22;;;13.06;100.00
2681;BME280;1350;42.134;24.708;2022-12-18T02:52:07;100098.47;;;13.07;100.00
2681;BME280;1350;42.134;24.708;2022-12-18T02:54:54;100101.38;;;13.03;100.00
2681;BME280;1350;42.134;24.708;2022-12-18T02:57:28;100101.84;;;13.11;100.00
2681;BME280;1350;42.134;24.708;2022-12-18T03:00:03;100099.34;;;13.08;100.00
2681;BME280;1350;42.134;24.708;2022-12-18T03:02:35;100105.00;;;13.02;100.00
2681;BME280;1350;42.134;24.708;2022-12-18T03:05:08;100103.97;;;13.04;100.00
2681;BME280;1350;42.134;24.708;2022-12-18T03:07:41;100112.13;;;13.01;100.00
2681;BME280;1350;42.134;24.708;2022-12-18T03:10:12;100112.19;;;13.00;100.00
2681;BME280;1350;42.134;24.708;2022-12-18T03:12:44;100114.34;;;13.09;100.00
2681;BME280;1350;42.134;24.708;2022-12-18T03:15:16;100118.91;;;13.07;100.00
2681;BME280;1350;42.134;24.708;2022-12-18T03:17:49;100115.47;;;13.05;100.00
2681;BME280;1350;42.134;24.708;2022-12-18T03:20:19;100119.94;;;12.87;100.00
2681;BME280;1350;42.134;24.708;2022-12-18T03:22:51;100132.59;;;12.99;100.00
2681;BME280;1350;42.134;24.708;2022-12-18T03:25:20;100128.94;;;12.85;100.00
2681;BME280;1350;42.134;24.708;2022-12-18T03:27:51;100126.75;;;12.93;100.00
2681;BME280;1350;42.134;24.708;2022-12-18T03:30:20;100131.56;;;12.69;100.00
2681;BME280;1350;42.134;24.708;2022-12-18T03:32:49;100135.34;;;12.81;100.00
2681;BME280;1350;42.134;24.708;2022-12-18T03:35:21;100141.47;;;12.83;100.00
2681;BME280;1350;42.134;24.708;2022-12-18T03:37:48;100141.00;;;12.75;100.00
2681;BME280;1350;42.134;24.708;2022-12-18T03:40:15;100149.38;;;12.67;100.00
2681;BME280;1350;42.134;24.708;2022-12-18T03:42:46;100143.56;;;12.93;100.00
2681;BME280;1350;42.134;24.708;2022-12-18T03:45:21;100154.13;;;12.95;100.00
2681;BME280;1350;42.134;24.708;2022-12-18T03:47:58;100167.53;;;12.93;100.00
2681;BME280;1350;42.134;24.708;2022-12-18T03:50:33;100169.25;;;12.94;100.00
2681;BME280;1350;42.134;24.708;2022-12-18T03:53:11;100175.13;;;13.01;100.00
2681;BME280;1350;42.134;24.708;2022-12-18T03:55:40;100173.50;;;12.64;100.00
2681;BME280;1350;42.134;24.708;2022-12-18T03:58:12;100172.63;;;12.81;100.00
2681;BME280;1350;42.134;24.708;2022-12-18T04:00:42;100180.50;;;12.82;100.00
2681;BME280;1350;42.134;24.708;2022-12-18T04:03:10;100187.81;;;12.79;100.00
2681;BME280;1350;42.134;24.708;2022-12-18T04:05:38;100189.22;;;12.69;100.00
2681;BME280;1350;42.134;24.708;2022-12-18T04:08:06;100188.81;;;12.59;100.00
2681;BME280;1350;42.134;24.708;2022-12-18T04:10:33;100186.56;;;12.69;100.00
2681;BME280;1350;42.134;24.708;2022-12-18T04:13:00;100190.97;;;12.70;100.00
2681;BME280;1350;42.134;24.708;2022-12-18T04:15:27;100197.84;;;12.74;100.00
2681;BME280;1350;42.134;24.708;2022-12-18T04:17:55;100199.78;;;12.87;100.00
2681;BME280;1350;42.134;24.708;2022-12-18T04:20:21;100198.53;;;12.60;100.00
2681;BME280;1350;42.134;24.708;2022-12-18T04:22:48;100196.81;;;12.59;100.00
2681;BME280;1350;42.134;24.708;2022-12-18T04:25:15;100206.06;;;12.69;100.00
2681;BME280;1350;42.134;24.708;2022-12-18T04:27:42;100208.41;;;12.75;100.00
2681;BME280;1350;42.134;24.708;2022-12-18T04:30:09;100213.25;;;12.84;100.00
2681;BME280;1350;42.134;24.708;2022-12-18T04:32:36;100214.59;;;12.59;100.00
2681;BME280;1350;42.134;24.708;2022-12-18T04:35:05;100216.69;;;12.86;100.00
2681;BME280;1350;42.134;24.708;2022-12-18T04:37:35;100222.19;;;12.66;100.00
2681;BME280;1350;42.134;24.708;2022-12-18T04:40:03;100215.41;;;12.59;100.00
2681;BME280;1350;42.134;24.708;2022-12-18T04:42:30;100220.09;;;12.37;100.00
2681;BME280;1350;42.134;24.708;2022-12-18T04:44:56;100221.78;;;12.21;100.00
2681;BME280;1350;42.134;24.708;2022-12-18T04:47:23;100220.44;;;12.13;100.00
2681;BME280;1350;42.134;24.708;2022-12-18T04:49:50;100232.44;;;12.38;100.00
2681;BME280;1350;42.134;24.708;2022-12-18T04:52:18;100225.84;;;12.47;100.00
2681;BME280;1350;42.134;24.708;2022-12-18T04:54:45;100235.00;;;12.23;100.00
2681;BME280;1350;42.134;24.708;2022-12-18T04:57:11;100247.22;;;12.27;100.00
2681;BME280;1350;42.134;24.708;2022-12-18T04:59:38;100252.53;;;12.27;100.00
2681;BME280;1350;42.134;24.708;2022-12-18T05:02:05;100262.59;;;12.20;100.00
2681;BME280;1350;42.134;24.708;2022-12-18T05:04:32;100261.88;;;12.17;100.00
2681;BME280;1350;42.134;24.708;2022-12-18T05:06:58;100271.88;;;12.12;100.00
2681;BME280;1350;42.134;24.708;2022-12-18T05:09:26;100271.09;;;12.28;100.00
2681;BME280;1350;42.134;24.708;2022-12-18T05:11:53;100268.94;;;12.18;100.00
2681;BME280;1350;42.134;24.708;2022-12-18T05:14:20;100279.00;;;12.30;100.00
2681;BME280;1350;42.134;24.708;2022-12-18T05:16:46;100277.53;;;12.23;100.00
2681;BME280;1350;42.134;24.708;2022-12-18T05:19:13;100279.50;;;12.19;100.00
2681;BME280;1350;42.134;24.708;2022-12-18T05:21:40;100285.59;;;12.21;100.00
2681;BME280;1350;42.134;24.708;2022-12-18T05:24:07;100288.03;;;12.26;100.00
2681;BME280;1350;42.134;24.708;2022-12-18T05:26:35;100293.78;;;12.35;100.00
2681;BME280;1350;42.134;24.708;2022-12-18T05:29:02;100302.63;;;12.17;100.00
2681;BME280;1350;42.134;24.708;2022-12-18T05:31:29;100310.53;;;12.19;100.00
2681;BME280;1350;42.134;24.708;2022-12-18T05:33:56;100310.97;;;12.28;100.00
2681;BME280;1350;42.134;24.708;2022-12-18T05:36:22;100327.84;;;12.27;100.00
2681;BME280;1350;42.134;24.708;2022-12-18T05:38:49;100327.22;;;12.41;100.00
2681;BME280;1350;42.134;24.708;2022-12-18T05:41:16;100318.63;;;12.53;100.00
2681;BME280;1350;42.134;24.708;2022-12-18T05:43:44;100325.94;;;12.66;100.00
2681;BME280;1350;42.134;24.708;2022-12-18T05:46:13;100330.09;;;12.53;100.00
2681;BME280;1350;42.134;24.708;2022-12-18T05:48:40;100339.72;;;12.39;100.00
2681;BME280;1350;42.134;24.708;2022-12-18T05:51:09;100343.41;;;12.35;100.00
2681;BME280;1350;42.134;24.708;2022-12-18T05:53:37;100341.41;;;12.40;100.00
2681;BME280;1350;42.134;24.708;2022-12-18T05:56:06;100343.50;;;12.52;100.00
2681;BME280;1350;42.134;24.708;2022-12-18T05:58:33;100344.66;;;12.28;100.00
2681;BME280;1350;42.134;24.708;2022-12-18T06:01:08;100355.28;;;12.65;100.00
2681;BME280;1350;42.134;24.708;2022-12-18T06:03:35;100355.22;;;12.48;100.00
2681;BME280;1350;42.134;24.708;2022-12-18T06:06:02;100353.94;;;12.38;100.00
2681;BME280;1350;42.134;24.708;2022-12-18T06:08:30;100353.66;;;12.44;100.00
2681;BME280;1350;42.134;24.708;2022-12-18T06:10:57;100359.81;;;12.26;100.00
2681;BME280;1350;42.134;24.708;2022-12-18T06:13:24;100362.13;;;12.33;100.00
2681;BME280;1350;42.134;24.708;2022-12-18T06:15:51;100360.47;;;12.49;100.00
2681;BME280;1350;42.134;24.708;2022-12-18T06:18:19;100360.31;;;12.71;100.00
2681;BME280;1350;42.134;24.708;2022-12-18T06:20:54;100373.72;;;12.86;100.00
2681;BME280;1350;42.134;24.708;2022-12-18T06:23:21;100378.78;;;12.55;100.00
2681;BME280;1350;42.134;24.708;2022-12-18T06:25:47;100371.38;;;12.62;100.00
2681;BME280;1350;42.134;24.708;2022-12-18T06:28:14;100382.75;;;12.65;100.00
2681;BME280;1350;42.134;24.708;2022-12-18T06:30:43;100389.78;;;12.85;100.00
2681;BME280;1350;42.134;24.708;2022-12-18T06:33:10;100387.78;;;12.71;100.00
2681;BME280;1350;42.134;24.708;2022-12-18T06:35:38;100391.06;;;12.76;100.00
2681;BME280;1350;42.134;24.708;2022-12-18T06:38:05;100401.00;;;12.73;100.00
2681;BME280;1350;42.134;24.708;2022-12-18T06:40:31;100412.94;;;12.83;100.00
2681;BME280;1350;42.134;24.708;2022-12-18T06:42:58;100412.34;;;12.76;100.00
2681;BME280;1350;42.134;24.708;2022-12-18T06:45:25;100411.88;;;12.68;100.00
2681;BME280;1350;42.134;24.708;2022-12-18T06:47:52;100414.91;;;12.61;100.00
2681;BME280;1350;42.134;24.708;2022-12-18T06:50:18;100422.22;;;12.56;100.00
2681;BME280;1350;42.134;24.708;2022-12-18T06:52:46;100427.69;;;12.90;100.00
2681;BME280;1350;42.134;24.708;2022-12-18T06:55:13;100436.81;;;12.84;100.00
2681;BME280;1350;42.134;24.708;2022-12-18T06:57:40;100427.41;;;12.77;100.00
2681;BME280;1350;42.134;24.708;2022-12-18T07:00:07;100437.53;;;12.88;100.00
2681;BME280;1350;42.134;24.708;2022-12-18T07:02:34;100438.81;;;12.79;100.00
2681;BME280;1350;42.134;24.708;2022-12-18T07:05:01;100443.28;;;12.79;100.00
2681;BME280;1350;42.134;24.708;2022-12-18T07:07:28;100438.84;;;12.61;100.00
2681;BME280;1350;42.134;24.708;2022-12-18T07:09:56;100446.16;;;12.93;100.00
2681;BME280;1350;42.134;24.708;2022-12-18T07:12:22;100450.34;;;12.80;100.00
2681;BME280;1350;42.134;24.708;2022-12-18T07:14:49;100453.78;;;12.82;100.00
2681;BME280;1350;42.134;24.708;2022-12-18T07:17:16;100461.28;;;12.74;100.00
2681;BME280;1350;42.134;24.708;2022-12-18T07:19:43;100451.94;;;12.65;100.00
2681;BME280;1350;42.134;24.708;2022-12-18T07:22:09;100456.97;;;12.71;100.00
2681;BME280;1350;42.134;24.708;2022-12-18T07:24:36;100467.97;;;12.64;100.00
2681;BME280;1350;42.134;24.708;2022-12-18T07:27:04;100473.78;;;12.72;100.00
2681;BME280;1350;42.134;24.708;2022-12-18T07:29:31;100467.97;;;12.64;100.00
2681;BME280;1350;42.134;24.708;2022-12-18T07:31:58;100468.03;;;12.62;100.00
2681;BME280;1350;42.134;24.708;2022-12-18T07:34:25;100471.03;;;12.55;100.00
2681;BME280;1350;42.134;24.708;2022-12-18T07:36:52;100475.09;;;12.63;100.00
2681;BME280;1350;42.134;24.708;2022-12-18T07:39:18;100475.44;;;12.56;100.00
2681;BME280;1350;42.134;24.708;2022-12-18T07:41:45;100472.78;;;12.56;100.00
2681;BME280;1350;42.134;24.708;2022-12-18T07:44:33;100481.97;;;12.67;100.00
2681;BME280;1350;42.134;24.708;2022-12-18T07:47:00;100481.53;;;12.58;100.00
2681;BME280;1350;42.134;24.708;2022-12-18T07:49:27;100489.66;;;12.55;100.00
2681;BME280;1350;42.134;24.708;2022-12-18T07:51:54;100490.72;;;12.51;100.00
2681;BME280;1350;42.134;24.708;2022-12-18T07:54:21;100491.03;;;12.63;100.00
2681;BME280;1350;42.134;24.708;2022-12-18T07:56:48;100509.16;;;12.55;100.00
2681;BME280;1350;42.134;24.708;2022-12-18T07:59:15;100501.22;;;12.54;100.00
2681;BME280;1350;42.134;24.708;2022-12-18T08:01:43;100514.03;;;12.64;100.00
2681;BME280;1350;42.134;24.708;2022-12-18T08:04:10;100513.53;;;12.56;100.00
2681;BME280;1350;42.134;24.708;2022-12-18T08:06:36;100517.47;;;12.48;100.00
2681;BME280;1350;42.134;24.708;2022-12-18T08:09:03;100521.31;;;12.61;100.00
2681;BME280;1350;42.134;24.708;2022-12-18T08:11:30;100519.06;;;12.52;100.00
2681;BME280;1350;42.134;24.708;2022-12-18T08:13:57;100522.09;;;12.63;100.00
2681;BME280;1350;42.134;24.708;2022-12-18T08:16:24;100527.31;;;12.46;100.00
2681;BME280;1350;42.134;24.708;2022-12-18T08:18:53;100523.84;;;12.64;100.00
2681;BME280;1350;42.134;24.708;2022-12-18T08:21:22;100528.75;;;12.73;100.00
2681;BME280;1350;42.134;24.708;2022-12-18T08:23:50;100535.41;;;12.63;100.00
2681;BME280;1350;42.134;24.708;2022-12-18T08:26:17;100532.59;;;12.66;100.00
2681;BME280;1350;42.134;24.708;2022-12-18T08:28:44;100530.38;;;12.75;100.00
2681;BME280;1350;42.134;24.708;2022-12-18T08:31:10;100545.75;;;12.69;100.00
2681;BME280;1350;42.134;24.708;2022-12-18T08:33:38;100536.38;;;12.80;100.00
2681;BME280;1350;42.134;24.708;2022-12-18T08:38:28;100528.63;;;12.94;100.00
